Ringgold, Nebraska
Current Conditions -  °F | °C
As of 5:53 AM on Sunday 25 Jan 2015 (Local Time) from KLBF Reporting Station
Clear Clear  
Wind Chill: 24°   Ceiling: Unl
Heat Index: 33°   Visibility: 10mi
Dew Point: 26°   Wind: 13mph
Humidity: 75%   Direction: 330°NNW
Pressure: 30"   Gusts: NA
Location:  41.5681°N, 101.06°W
Report Text: KLBF 251153Z AUTO 33011KT 10SM CLR 01/M03 A3000 RMK AO2 SLP172 70001 T00061033 10039 20006 53017 $
Loading
Personal Weather Stations






























Interactive Weather Map New forecast layout! Learn more

10-Day Weather Forecast

Advertisements
Track Severe Weather on mobile